Time;durP1;ratioP1;P1;durP2;ratioP2;P2;SDS_P1;SDS_P2;PMS_P1;PMS_P2;Temp;Humidity;BMP_temperature;BMP_pressure;BME280_temperature;BME280_humidity;BME280_pressure;Samples;Min_cycle;Max_cycle;Signal;HPM_P1;HPM_P2
2023/07/23 00:01:42;;;;;;;6.60;3.58;;;;;;;19.26;nan;100553.19;5023756;28;20582;-73
2023/07/23 00:04:08;;;;;;;8.48;3.55;;;;;;;19.13;nan;100537.81;5018004;28;20044;-71
2023/07/23 00:06:33;;;;;;;7.15;3.80;;;;;;;19.13;nan;100540.50;5023955;28;20036;-72
2023/07/23 00:08:59;;;;;;;7.07;3.85;;;;;;;19.20;nan;100556.97;5020328;28;20030;-72
2023/07/23 00:11:24;;;;;;;6.85;4.07;;;;;;;19.11;nan;100547.97;5020106;28;20026;-72
2023/07/23 00:13:50;;;;;;;8.50;3.70;;;;;;;19.04;nan;100548.28;5022683;28;20108;-73
2023/07/23 00:16:15;;;;;;;5.95;3.20;;;;;;;19.11;nan;100558.66;5018497;28;20034;-72
2023/07/23 00:18:40;;;;;;;5.18;3.20;;;;;;;19.17;nan;100580.75;5018742;28;20030;-72
2023/07/23 00:21:06;;;;;;;3.88;3.20;;;;;;;19.07;nan;100573.63;5020448;28;20490;-73
2023/07/23 00:23:31;;;;;;;6.32;3.10;;;;;;;18.94;nan;100575.03;5017543;28;20029;-73
2023/07/23 00:25:56;;;;;;;6.18;3.13;;;;;;;18.97;nan;100581.69;5022604;28;20040;-72
2023/07/23 00:28:22;;;;;;;7.32;3.53;;;;;;;18.86;nan;100573.72;5020148;28;20475;-72
2023/07/23 00:30:48;;;;;;;9.05;3.72;;;;;;;18.85;nan;100577.47;5017450;28;20369;-73
2023/07/23 00:33:13;;;;;;;6.32;3.38;;;;;;;18.83;nan;100576.97;5018743;28;20083;-72
2023/07/23 00:35:38;;;;;;;4.47;3.22;;;;;;;18.78;nan;100568.19;5020019;28;20044;-73
2023/07/23 00:38:04;;;;;;;4.97;3.65;;;;;;;18.85;nan;100584.69;5018737;28;20033;-72
2023/07/23 00:40:29;;;;;;;7.03;3.20;;;;;;;18.81;nan;100573.75;5034526;28;20041;-74
2023/07/23 00:42:54;;;;;;;6.75;3.95;;;;;;;18.81;nan;100578.31;5015442;28;20082;-71
2023/07/23 00:45:20;;;;;;;5.20;3.88;;;;;;;18.82;nan;100582.56;5021428;28;20558;-73
2023/07/23 00:47:45;;;;;;;7.15;3.88;;;;;;;18.75;nan;100574.84;5019461;28;20029;-73
2023/07/23 00:50:13;;;;;;;5.57;4.10;;;;;;;18.82;nan;100588.72;5020867;28;20034;-73
2023/07/23 00:52:38;;;;;;;5.47;3.80;;;;;;;18.77;nan;100588.75;5017898;28;20030;-73
2023/07/23 00:55:05;;;;;;;10.50;4.18;;;;;;;18.77;nan;100594.09;5018837;28;20032;-72
2023/07/23 00:57:31;;;;;;;7.47;4.30;;;;;;;18.56;nan;100557.88;5021283;28;20029;-73
2023/07/23 00:59:56;;;;;;;9.65;4.20;;;;;;;18.69;nan;100581.28;5016854;28;20121;-73
2023/07/23 01:02:26;;;;;;;7.13;4.60;;;;;;;18.72;nan;100594.06;5016711;28;20022;-72
2023/07/23 01:04:51;;;;;;;;;;;;;;;18.79;nan;100610.59;5021458;28;20794;-72
2023/07/23 01:07:17;;;;;;;8.90;3.95;;;;;;;18.77;nan;100604.75;5021032;28;20434;-73
2023/07/23 01:09:43;;;;;;;5.85;4.00;;;;;;;18.66;nan;100587.16;5018266;28;20044;-73
2023/07/23 01:12:09;;;;;;;14.18;4.07;;;;;;;18.80;nan;100603.41;5014682;28;20067;-73
2023/07/23 01:14:35;;;;;;;6.53;5.00;;;;;;;18.81;nan;100599.66;5022871;28;20126;-72
2023/07/23 01:17:00;;;;;;;12.02;4.28;;;;;;;18.71;nan;100600.47;5021740;28;20037;-71
2023/07/23 01:19:26;;;;;;;5.97;3.97;;;;;;;18.73;nan;100619.66;5018571;28;20029;-73
2023/07/23 01:22:05;;;;;;;6.80;4.10;;;;;;;18.68;nan;100617.03;5015673;28;20081;-72
2023/07/23 01:24:30;;;;;;;6.18;4.20;;;;;;;18.57;nan;100610.91;5014190;28;20554;-71
2023/07/23 01:26:56;;;;;;;4.68;3.90;;;;;;;18.54;nan;100605.34;5018580;28;20036;-74
2023/07/23 01:29:21;;;;;;;6.65;4.03;;;;;;;18.60;nan;100625.59;5018401;28;20493;-71
2023/07/23 01:31:47;;;;;;;5.70;3.70;;;;;;;18.58;nan;100633.06;5015856;28;20037;-73
2023/07/23 01:34:13;;;;;;;9.90;4.25;;;;;;;18.48;nan;100610.72;5017664;28;21214;-72
2023/07/23 01:36:40;;;;;;;10.27;4.00;;;;;;;18.49;nan;100608.84;5016278;28;20038;-72
2023/07/23 01:39:05;;;;;;;7.05;4.00;;;;;;;18.45;nan;100605.91;5017881;28;20030;-73
2023/07/23 01:41:31;;;;;;;5.90;3.67;;;;;;;18.52;nan;100613.63;5019660;28;20033;-73
2023/07/23 01:43:58;;;;;;;10.73;4.15;;;;;;;18.51;nan;100622.69;5018330;28;20053;-72
2023/07/23 01:46:24;;;;;;;7.80;4.03;;;;;;;18.50;nan;100621.09;5021285;28;20029;-71
2023/07/23 01:48:49;;;;;;;5.45;4.13;;;;;;;18.46;nan;100622.69;5020023;28;20449;-71
2023/07/23 01:51:14;;;;;;;5.57;3.70;;;;;;;18.41;nan;100622.72;5027710;28;20029;-71
2023/07/23 01:53:40;;;;;;;6.15;3.83;;;;;;;18.42;nan;100635.00;5021695;28;20029;-72
2023/07/23 01:56:05;;;;;;;7.43;4.10;;;;;;;18.43;nan;100637.38;5024756;28;20024;-72
2023/07/23 01:58:31;;;;;;;8.88;4.15;;;;;;;18.38;nan;100637.38;5038024;28;20395;-72
2023/07/23 02:01:04;;;;;;;5.88;3.90;;;;;;;18.35;nan;100635.28;5022990;28;20021;-71
2023/07/23 02:03:29;;;;;;;6.85;4.20;;;;;;;18.28;nan;100621.44;5019980;28;20060;-71
2023/07/23 02:05:57;;;;;;;6.22;4.05;;;;;;;18.33;nan;100634.75;5023270;28;20504;-71
2023/07/23 02:08:22;;;;;;;10.07;5.07;;;;;;;18.25;nan;100632.63;5018260;28;20029;-71
2023/07/23 02:10:48;;;;;;;7.68;4.57;;;;;;;18.18;nan;100624.91;5021361;28;20036;-72
2023/07/23 02:13:13;;;;;;;5.60;4.80;;;;;;;18.28;nan;100656.09;5028838;28;20030;-73
2023/07/23 02:15:39;;;;;;;6.22;4.13;;;;;;;18.19;nan;100658.47;5023035;28;20134;-74
2023/07/23 02:18:04;;;;;;;6.43;4.05;;;;;;;18.09;nan;100641.72;5024219;28;20030;-73
2023/07/23 02:20:29;;;;;;;5.68;4.20;;;;;;;18.14;nan;100647.84;5022127;28;20124;-72
2023/07/23 02:22:56;;;;;;;9.35;4.38;;;;;;;18.13;nan;100658.78;5038486;28;20030;-73
2023/07/23 02:25:21;;;;;;;12.18;4.70;;;;;;;18.10;nan;100659.28;5020191;28;20040;-72
2023/07/23 02:27:47;;;;;;;11.85;5.15;;;;;;;18.12;nan;100667.81;5022521;28;20022;-73
2023/07/23 02:30:12;;;;;;;8.07;5.13;;;;;;;18.05;nan;100652.94;5026830;28;20472;-72
2023/07/23 02:32:38;;;;;;;7.95;5.00;;;;;;;18.04;nan;100659.31;5021913;28;20026;-72
2023/07/23 02:35:03;;;;;;;9.73;4.53;;;;;;;17.99;nan;100664.66;5023363;28;20034;-72
2023/07/23 02:37:29;;;;;;;7.63;5.03;;;;;;;18.06;nan;100670.50;5019886;28;20025;-71
2023/07/23 02:39:54;;;;;;;10.07;5.40;;;;;;;17.96;nan;100667.06;5024271;28;20116;-73
2023/07/23 02:42:20;;;;;;;9.38;5.13;;;;;;;18.04;nan;100671.84;5022383;28;20197;-72
2023/07/23 02:44:45;;;;;;;8.68;5.15;;;;;;;18.02;nan;100649.97;5026184;28;20435;-71
2023/07/23 02:47:10;;;;;;;9.13;4.68;;;;;;;18.10;nan;100672.63;5022836;28;20017;-71
2023/07/23 02:49:36;;;;;;;9.02;5.03;;;;;;;18.09;nan;100674.50;5018696;28;20097;-71
2023/07/23 02:52:02;;;;;;;7.82;4.50;;;;;;;18.15;nan;100675.28;5018604;28;20017;-71
2023/07/23 02:54:28;;;;;;;10.27;5.05;;;;;;;18.05;nan;100674.25;5018317;28;20053;-72
2023/07/23 02:56:53;;;;;;;7.60;5.05;;;;;;;18.11;nan;100676.91;5023009;28;20063;-72
2023/07/23 02:59:18;;;;;;;7.25;4.93;;;;;;;17.91;nan;100641.22;5024375;28;20033;-72
2023/07/23 03:01:44;;;;;;;15.93;6.35;;;;;;;18.10;nan;100669.97;5024197;28;20029;-72
2023/07/23 03:04:09;;;;;;;8.43;5.25;;;;;;;18.06;nan;100667.84;5019399;28;20029;-71
2023/07/23 03:06:34;;;;;;;8.80;5.13;;;;;;;18.06;nan;100673.16;5022704;28;20080;-72
2023/07/23 03:09:00;;;;;;;7.40;5.65;;;;;;;18.04;nan;100677.97;5023884;28;20383;-71
2023/07/23 03:11:25;;;;;;;11.63;5.82;;;;;;;17.96;nan;100673.19;5019613;28;20060;-72
2023/07/23 03:13:51;;;;;;;9.95;5.78;;;;;;;17.95;nan;100679.56;5022943;28;20025;-72
2023/07/23 03:16:16;;;;;;;13.15;5.68;;;;;;;17.89;nan;100679.84;5023122;28;20454;-73
2023/07/23 03:18:41;;;;;;;7.70;5.30;;;;;;;17.88;nan;100675.56;5019760;28;20095;-72
2023/07/23 03:21:07;;;;;;;9.77;5.47;;;;;;;17.89;nan;100682.50;5022849;28;20053;-72
2023/07/23 03:23:33;;;;;;;10.50;5.97;;;;;;;17.83;nan;100679.03;5022239;28;20475;-73
2023/07/23 03:25:58;;;;;;;12.38;6.18;;;;;;;17.84;nan;100680.66;5022260;28;20030;-72
2023/07/23 03:28:23;;;;;;;15.25;6.45;;;;;;;17.81;nan;100678.50;5020372;28;20695;-72
2023/07/23 03:30:49;;;;;;;8.90;5.80;;;;;;;17.71;nan;100668.59;5022340;28;20442;-73
2023/07/23 03:33:14;;;;;;;10.35;5.95;;;;;;;17.78;nan;100681.66;5018818;28;20040;-72
2023/07/23 03:35:40;;;;;;;7.97;6.22;;;;;;;17.78;nan;100684.34;5020514;28;20602;-72
2023/07/23 03:38:05;;;;;;;12.02;6.32;;;;;;;17.82;nan;100688.09;5021455;28;20080;-72
2023/07/23 03:40:30;;;;;;;9.13;6.28;;;;;;;17.85;nan;100684.91;5017572;28;20034;-72
2023/07/23 03:42:56;;;;;;;9.57;5.80;;;;;;;17.88;nan;100686.22;5020307;28;20045;-73
2023/07/23 03:45:21;;;;;;;9.50;5.68;;;;;;;17.82;nan;100688.09;5021155;28;20033;-72
2023/07/23 03:47:46;;;;;;;10.00;5.70;;;;;;;17.82;nan;100694.22;5020408;28;20075;-71
2023/07/23 03:50:12;;;;;;;10.80;6.30;;;;;;;17.85;nan;100701.69;5020127;28;20964;-72
2023/07/23 03:52:37;;;;;;;9.02;6.30;;;;;;;17.85;nan;100701.69;5022679;28;20144;-72
2023/07/23 03:55:03;;;;;;;9.55;6.28;;;;;;;17.88;nan;100708.34;5018712;28;20030;-72
2023/07/23 03:57:28;;;;;;;10.25;6.38;;;;;;;17.82;nan;100696.88;5017606;28;20075;-73
2023/07/23 03:59:54;;;;;;;10.73;6.85;;;;;;;17.90;nan;100710.75;5019979;28;20030;-72
2023/07/23 04:02:19;;;;;;;12.68;7.00;;;;;;;17.75;nan;100676.88;5017742;28;20113;-73
2023/07/23 04:04:44;;;;;;;11.75;7.05;;;;;;;17.72;nan;100670.22;5019156;28;20683;-71
2023/07/23 04:07:10;;;;;;;8.95;6.38;;;;;;;17.93;nan;100692.34;5020746;28;20030;-73
2023/07/23 04:09:35;;;;;;;10.32;6.70;;;;;;;17.96;nan;100696.38;5022376;28;20027;-72
2023/07/23 04:12:01;;;;;;;11.13;6.50;;;;;;;18.04;nan;100693.94;5019784;28;20096;-72
2023/07/23 04:14:27;;;;;;;10.02;6.95;;;;;;;17.96;nan;100683.03;5020176;28;20464;-72
2023/07/23 04:16:55;;;;;;;11.98;6.70;;;;;;;18.09;nan;100698.47;5018089;28;20029;-72
2023/07/23 04:19:22;;;;;;;12.93;7.13;;;;;;;18.14;nan;100697.69;5017612;28;20021;-71
2023/07/23 04:21:47;;;;;;;8.73;6.30;;;;;;;18.13;nan;100677.44;5019778;28;20087;-71
2023/07/23 04:24:12;;;;;;;8.77;5.60;;;;;;;18.26;nan;100696.31;5019488;28;20037;-69
2023/07/23 04:26:38;;;;;;;10.25;6.43;;;;;;;18.35;nan;100688.59;5018160;28;20033;-72
2023/07/23 04:29:03;;;;;;;15.13;6.00;;;;;;;18.46;nan;100702.69;5017832;28;20033;-71
2023/07/23 04:31:31;;;;;;;12.55;5.82;;;;;;;18.59;nan;100698.69;5018474;28;20040;-71
2023/07/23 04:33:57;;;;;;;9.13;5.70;;;;;;;18.51;nan;100684.03;5017165;28;20051;-70
2023/07/23 04:36:22;;;;;;;7.55;5.40;;;;;;;18.69;nan;100704.78;5021086;28;20794;-73
2023/07/23 04:38:48;;;;;;;10.50;6.22;;;;;;;18.71;nan;100689.28;5020880;28;20025;-73
2023/07/23 04:41:14;;;;;;;9.70;5.65;;;;;;;18.78;nan;100680.25;5022120;28;20380;-74
2023/07/23 04:43:41;;;;;;;9.70;5.72;;;;;;;18.88;nan;100683.66;5016991;28;20080;-72
2023/07/23 04:46:06;;;;;;;8.43;5.40;;;;;;;18.98;nan;100684.69;5033099;28;20021;-71
2023/07/23 04:48:33;;;;;;;10.82;5.55;;;;;;;19.08;nan;100696.13;5016249;28;20029;-73
2023/07/23 04:51:00;;;;;;;13.27;5.68;;;;;;;19.09;nan;100697.72;5015741;28;20080;-70
2023/07/23 04:53:25;;;;;;;10.15;5.72;;;;;;;19.18;nan;100710.47;5014939;28;20026;-73
2023/07/23 04:55:52;;;;;;;9.60;5.90;;;;;;;19.11;nan;100690.25;5018300;28;20036;-72
2023/07/23 04:58:18;;;;;;;6.75;5.20;;;;;;;19.18;nan;100697.94;5017770;28;20025;-72
2023/07/23 05:00:43;;;;;;;8.68;5.60;;;;;;;19.27;nan;100714.97;5018692;28;20025;-72
2023/07/23 05:03:11;;;;;;;13.65;5.88;;;;;;;19.21;nan;100700.06;5020463;28;20044;-71
2023/07/23 05:05:37;;;;;;;8.00;5.38;;;;;;;19.33;nan;100721.09;5022036;28;20025;-73
2023/07/23 05:08:02;;;;;;;9.18;5.85;;;;;;;19.26;nan;100708.03;5019507;28;20037;-70
2023/07/23 05:10:28;;;;;;;7.53;5.50;;;;;;;19.36;nan;100725.88;5016552;28;20643;-70
2023/07/23 05:12:53;;;;;;;11.32;5.97;;;;;;;19.34;nan;100710.13;5016870;28;20030;-70
2023/07/23 05:15:18;;;;;;;9.13;5.70;;;;;;;19.34;nan;100706.66;5015381;28;20038;-68
2023/07/23 05:17:44;;;;;;;8.75;5.50;;;;;;;19.41;nan;100714.38;5016378;28;20026;-72
2023/07/23 05:20:09;;;;;;;8.40;5.45;;;;;;;19.48;nan;100721.00;5016065;28;20119;-74
2023/07/23 05:22:39;;;;;;;10.68;5.55;;;;;;;19.55;nan;100726.84;5018130;28;20030;-73
2023/07/23 05:25:06;;;;;;;6.40;5.40;;;;;;;19.45;nan;100710.09;5017494;28;20021;-72
2023/07/23 05:27:31;;;;;;;11.77;6.68;;;;;;;19.54;nan;100701.22;5015054;28;20037;-71
2023/07/23 05:29:57;;;;;;;10.38;5.30;;;;;;;19.75;nan;100722.47;5013070;28;20153;-70
2023/07/23 05:32:23;;;;;;;8.95;5.82;;;;;;;19.77;nan;100723.78;5017521;28;20112;-71
2023/07/23 05:34:48;;;;;;;11.25;6.00;;;;;;;19.83;nan;100719.22;5016350;28;20061;-70
2023/07/23 05:37:14;;;;;;;9.38;5.93;;;;;;;19.95;nan;100737.56;5016938;28;20120;-72
2023/07/23 05:39:39;;;;;;;9.18;5.90;;;;;;;19.99;nan;100735.91;5017184;28;20771;-72
2023/07/23 05:42:05;;;;;;;9.07;5.40;;;;;;;20.03;nan;100739.63;5015560;28;20039;-72
2023/07/23 05:44:31;;;;;;;8.32;5.38;;;;;;;20.00;nan;100732.16;5018738;28;20411;-71
2023/07/23 05:46:57;;;;;;;10.63;5.43;;;;;;;20.11;nan;100739.03;5016406;28;20369;-72
2023/07/23 05:49:22;;;;;;;8.50;5.15;;;;;;;20.25;nan;100743.72;5012439;28;20040;-71
2023/07/23 05:51:48;;;;;;;8.32;4.95;;;;;;;20.33;nan;100737.78;5016090;28;20025;-71
2023/07/23 05:54:13;;;;;;;9.95;4.78;;;;;;;20.43;nan;100751.06;5033710;28;20062;-72
2023/07/23 05:56:39;;;;;;;8.98;4.22;;;;;;;20.50;nan;100750.72;5015328;28;20139;-73
2023/07/23 05:59:04;;;;;;;5.68;4.25;;;;;;;20.49;nan;100741.09;5018786;28;20033;-70
2023/07/23 06:01:29;;;;;;;5.63;3.92;;;;;;;20.68;nan;100746.56;5016591;28;20025;-73
2023/07/23 06:03:55;;;;;;;9.07;3.58;;;;;;;20.76;nan;100752.09;5016845;28;20025;-72
2023/07/23 06:06:22;;;;;;;5.72;3.97;;;;;;;20.82;nan;100756.28;5015323;28;20026;-71
2023/07/23 06:08:48;;;;;;;6.30;3.63;;;;;;;20.82;nan;100748.25;5015767;28;20501;-71
2023/07/23 06:11:13;;;;;;;5.50;3.55;;;;;;;20.98;nan;100746.22;5014815;28;20160;-71
2023/07/23 06:13:39;;;;;;;5.63;3.70;;;;;;;21.09;nan;100754.13;5015778;28;20060;-72
2023/07/23 06:16:04;;;;;;;5.75;3.65;;;;;;;21.21;nan;100755.31;5016456;28;20029;-70
2023/07/23 06:18:29;;;;;;;6.22;3.42;;;;;;;21.29;nan;100753.88;5015254;28;20173;-72
2023/07/23 06:20:55;;;;;;;6.55;3.67;;;;;;;21.33;nan;100768.25;5020934;28;20033;-73
2023/07/23 06:23:20;;;;;;;5.95;3.55;;;;;;;21.30;nan;100752.78;5022195;28;20120;-72
2023/07/23 06:25:46;;;;;;;6.55;3.70;;;;;;;21.41;nan;100754.28;5020345;28;20029;-72
2023/07/23 06:28:11;;;;;;;5.30;3.60;;;;;;;21.44;nan;100747.53;5015943;28;20029;-72
2023/07/23 06:30:36;;;;;;;6.30;3.75;;;;;;;21.49;nan;100749.34;5018341;28;20543;-72
2023/07/23 06:33:02;;;;;;;6.60;3.85;;;;;;;21.57;nan;100756.72;5019848;28;20038;-73
2023/07/23 06:35:28;;;;;;;5.30;3.47;;;;;;;21.56;nan;100739.84;5020237;28;20037;-73
2023/07/23 06:37:53;;;;;;;5.75;3.78;;;;;;;21.67;nan;100751.25;5019485;28;20030;-72
2023/07/23 06:40:18;;;;;;;7.03;3.65;;;;;;;21.74;nan;100748.16;5025154;28;20033;-73
2023/07/23 06:42:44;;;;;;;5.78;3.67;;;;;;;21.82;nan;100753.69;5025542;28;20053;-73
2023/07/23 06:45:09;;;;;;;5.40;3.30;;;;;;;21.79;nan;100748.91;5020996;28;20067;-73
2023/07/23 06:47:36;;;;;;;5.43;3.10;;;;;;;21.92;nan;100762.66;5018612;28;20464;-73
2023/07/23 06:50:02;;;;;;;5.25;3.60;;;;;;;22.00;nan;100764.66;5021363;28;20038;-72
2023/07/23 06:52:27;;;;;;;7.55;3.20;;;;;;;22.17;nan;100748.84;5022127;28;20506;-73
2023/07/23 06:54:53;;;;;;;5.03;3.45;;;;;;;22.37;nan;100746.94;5021454;28;20025;-72
2023/07/23 06:57:18;;;;;;;5.65;3.33;;;;;;;22.25;nan;100742.03;5019175;28;20036;-73
2023/07/23 06:59:46;;;;;;;6.55;3.60;;;;;;;22.53;nan;100764.34;5019932;28;20028;-71
2023/07/23 07:02:11;;;;;;;6.20;3.80;;;;;;;22.51;nan;100766.53;5019157;28;20033;-71
2023/07/23 07:04:37;;;;;;;4.60;3.03;;;;;;;22.56;nan;100766.44;5034010;28;20029;-70
2023/07/23 07:07:03;;;;;;;6.68;3.78;;;;;;;22.64;nan;100768.44;5020754;28;20026;-72
2023/07/23 07:09:28;;;;;;;6.10;3.85;;;;;;;22.60;nan;100756.72;5022738;28;20033;-72
2023/07/23 07:11:54;;;;;;;5.88;3.47;;;;;;;22.46;nan;100734.44;5017555;28;20092;-71
2023/07/23 07:14:20;;;;;;;5.97;3.25;;;;;;;22.76;nan;100764.47;5025449;28;20030;-71
2023/07/23 07:16:45;;;;;;;9.80;3.72;;;;;;;22.87;nan;100763.19;5019399;28;20072;-73
2023/07/23 07:19:10;;;;;;;5.22;3.55;;;;;;;22.97;nan;100770.25;5023776;28;20152;-72
2023/07/23 07:21:36;;;;;;;6.82;3.40;;;;;;;22.93;nan;100764.66;5019311;28;20029;-72
2023/07/23 07:24:02;;;;;;;5.28;3.45;;;;;;;23.01;nan;100772.06;5018602;28;20599;-74
2023/07/23 07:26:28;;;;;;;4.30;3.33;;;;;;;23.02;nan;100768.28;5019960;28;20040;-74
2023/07/23 07:28:53;;;;;;;4.93;3.38;;;;;;;23.11;nan;100769.16;5020129;28;20133;-74
2023/07/23 07:31:19;;;;;;;6.10;3.60;;;;;;;23.11;nan;100766.47;5016991;28;20033;-70
2023/07/23 07:33:44;;;;;;;6.18;3.90;;;;;;;23.10;nan;100767.56;5016807;28;20026;-71
2023/07/23 07:36:10;;;;;;;5.20;3.45;;;;;;;23.17;nan;100771.75;5032835;28;20029;-69
2023/07/23 07:38:35;;;;;;;8.25;3.90;;;;;;;23.16;nan;100751.38;5014160;28;20464;-69
2023/07/23 07:41:01;;;;;;;5.57;3.38;;;;;;;23.25;nan;100769.16;5018462;28;20054;-70
2023/07/23 07:43:27;;;;;;;6.60;3.83;;;;;;;23.32;nan;100769.53;5033459;28;20050;-71
2023/07/23 07:46:03;;;;;;;7.70;3.70;;;;;;;23.38;nan;100774.81;5016399;28;20026;-70
2023/07/23 07:48:30;;;;;;;7.13;3.28;;;;;;;23.47;nan;100781.06;5018239;28;20037;-73
2023/07/23 07:51:08;;;;;;;6.80;4.07;;;;;;;23.52;nan;100781.72;5019545;28;20049;-73
2023/07/23 07:53:35;;;;;;;5.78;3.67;;;;;;;23.45;nan;100754.47;5015508;28;20057;-74
2023/07/23 07:56:01;;;;;;;5.40;3.53;;;;;;;23.50;nan;100757.03;5033630;28;20022;-73
2023/07/23 07:58:27;;;;;;;6.78;3.80;;;;;;;23.63;nan;100776.91;5016889;28;20032;-73
2023/07/23 08:01:02;;;;;;;5.32;3.47;;;;;;;23.60;nan;100766.78;5014935;28;20485;-74
2023/07/23 08:03:29;;;;;;;7.03;3.90;;;;;;;23.74;nan;100772.94;5017242;28;20040;-73
2023/07/23 08:05:55;;;;;;;5.82;3.03;;;;;;;23.74;nan;100762.19;5017546;28;20049;-73
2023/07/23 08:08:32;;;;;;;5.40;3.38;;;;;;;23.84;nan;100771.13;5016552;28;20028;-74
2023/07/23 08:10:59;;;;;;;4.63;3.50;;;;;;;23.93;nan;100772.75;5016633;28;20487;-73
2023/07/23 08:13:25;;;;;;;9.48;3.60;;;;;;;23.95;nan;100765.19;5015388;28;20040;-73
2023/07/23 08:15:51;;;;;;;5.00;3.67;;;;;;;24.11;nan;100775.56;5017823;28;20022;-73
2023/07/23 08:18:18;;;;;;;5.30;3.30;;;;;;;24.04;nan;100759.88;5016625;28;20476;-73
2023/07/23 08:20:43;;;;;;;5.75;3.50;;;;;;;24.10;nan;100771.28;5023300;28;21250;-74
2023/07/23 08:23:09;;;;;;;4.90;3.20;;;;;;;24.14;nan;100778.44;5016309;28;20032;-73
2023/07/23 08:25:36;;;;;;;8.15;3.38;;;;;;;24.06;nan;100757.66;5016655;28;20021;-73
2023/07/23 08:28:02;;;;;;;3.63;2.97;;;;;;;24.14;nan;100756.13;5030881;28;20530;-72
2023/07/23 08:30:29;;;;;;;5.30;3.00;;;;;;;24.30;nan;100776.19;5017691;28;20112;-74
2023/07/23 08:32:56;;;;;;;4.68;3.40;;;;;;;24.34;nan;100765.59;5017912;28;20033;-73
2023/07/23 08:35:23;;;;;;;6.30;3.30;;;;;;;24.48;nan;100776.31;5017862;28;20037;-71
2023/07/23 08:37:48;;;;;;;4.35;3.20;;;;;;;24.44;nan;100757.22;5017423;28;20040;-71
2023/07/23 08:40:15;;;;;;;5.43;3.10;;;;;;;24.34;nan;100731.38;5016432;28;20022;-70
2023/07/23 08:42:49;;;;;;;4.78;3.28;;;;;;;24.68;nan;100764.97;5020425;28;20056;-69
2023/07/23 08:45:30;;;;;;;7.50;3.33;;;;;;;24.73;nan;100780.19;5020812;28;20029;-68
2023/07/23 08:48:18;;;;;;;4.22;3.38;;;;;;;24.81;nan;100769.47;5015916;28;20033;-68
2023/07/23 08:50:47;;;;;;;4.95;3.13;;;;;;;24.81;nan;100766.78;5015887;28;20021;-69
2023/07/23 08:53:14;;;;;;;6.93;2.88;;;;;;;24.97;nan;100780.63;5016737;28;20041;-68
2023/07/23 08:55:44;;;;;;;4.28;2.92;;;;;;;25.07;nan;100776.84;5016520;28;20057;-68
2023/07/23 08:58:15;;;;;;;6.20;3.13;;;;;;;25.14;nan;100777.19;5017420;28;20034;-68
2023/07/23 09:00:46;;;;;;;3.97;2.90;;;;;;;25.16;nan;100774.16;5017177;28;20060;-69
2023/07/23 09:03:14;;;;;;;3.63;2.47;;;;;;;25.29;nan;100781.34;5018334;28;20025;-69
2023/07/23 09:05:40;;;;;;;4.20;2.53;;;;;;;25.33;nan;100784.19;5011973;28;20083;-70
2023/07/23 09:08:07;;;;;;;5.25;2.60;;;;;;;25.34;nan;100780.41;5011980;28;20034;-69
2023/07/23 09:10:32;;;;;;;3.95;2.78;;;;;;;25.36;nan;100780.91;5014607;28;20021;-67
2023/07/23 09:13:09;;;;;;;5.40;2.90;;;;;;;25.39;nan;100774.88;5017277;28;20039;-70
2023/07/23 09:15:34;;;;;;;4.07;2.65;;;;;;;25.43;nan;100760.44;5015859;28;20038;-69
2023/07/23 09:17:59;;;;;;;7.15;3.00;;;;;;;25.60;nan;100778.53;5025264;28;20049;-69
2023/07/23 09:20:25;;;;;;;3.90;2.80;;;;;;;25.66;nan;100787.25;5017580;28;20030;-69
2023/07/23 09:22:50;;;;;;;4.97;3.25;;;;;;;25.66;nan;100773.75;5021893;28;20691;-70
2023/07/23 09:25:16;;;;;;;3.22;2.47;;;;;;;25.75;nan;100787.25;5028553;28;20029;-70
2023/07/23 09:27:42;;;;;;;3.45;2.60;;;;;;;25.80;nan;100792.50;5018440;28;20029;-70
2023/07/23 09:30:17;;;;;;;3.17;2.53;;;;;;;25.83;nan;100787.22;5019770;28;20032;-70
2023/07/23 09:32:42;;;;;;;5.03;2.88;;;;;;;25.89;nan;100791.41;5017373;28;20123;-69
2023/07/23 09:35:08;;;;;;;3.50;2.80;;;;;;;25.96;nan;100798.22;5017449;28;20033;-68
2023/07/23 09:37:35;;;;;;;3.88;2.90;;;;;;;25.85;nan;100768.03;5016975;28;20025;-68
2023/07/23 09:40:00;;;;;;;4.05;3.13;;;;;;;26.03;nan;100793.94;5021632;28;20026;-69
2023/07/23 09:42:26;;;;;;;3.53;2.63;;;;;;;26.03;nan;100788.53;5016898;28;20048;-68
2023/07/23 09:44:52;;;;;;;4.57;2.63;;;;;;;26.01;nan;100790.75;5019991;28;20349;-66
2023/07/23 09:47:35;;;;;;;4.35;2.67;;;;;;;25.89;nan;100772.50;5017469;28;20033;-68
2023/07/23 09:50:02;;;;;;;3.78;2.35;;;;;;;26.00;nan;100793.75;5016218;28;20463;-69
2023/07/23 09:52:37;;;;;;;3.72;2.70;;;;;;;25.98;nan;100786.00;5013273;28;20029;-68
2023/07/23 09:55:03;;;;;;;3.30;2.58;;;;;;;26.15;nan;100808.69;5015638;28;20030;-68
2023/07/23 09:57:31;;;;;;;3.25;2.30;;;;;;;26.08;nan;100799.16;5015843;28;20032;-69
2023/07/23 09:59:59;;;;;;;6.60;3.28;;;;;;;26.19;nan;100813.09;5014225;28;20680;-69
2023/07/23 10:02:25;;;;;;;6.53;3.05;;;;;;;26.22;nan;100814.41;5015879;28;20041;-70
2023/07/23 10:04:51;;;;;;;4.68;3.08;;;;;;;26.09;nan;100779.16;5019092;28;20369;-70
2023/07/23 10:07:17;;;;;;;3.97;2.78;;;;;;;26.09;nan;100768.34;5018901;28;20105;-69
2023/07/23 10:09:43;;;;;;;4.22;3.10;;;;;;;26.30;nan;100797.38;5018086;28;20025;-69
2023/07/23 10:12:08;;;;;;;4.03;3.03;;;;;;;26.29;nan;100798.47;5019175;28;20041;-69
2023/07/23 10:14:34;;;;;;;3.83;2.73;;;;;;;26.26;nan;100793.72;5018146;28;20030;-69
2023/07/23 10:17:01;;;;;;;3.95;2.83;;;;;;;26.35;nan;100791.00;5018675;28;20764;-69
2023/07/23 10:19:27;;;;;;;3.70;2.70;;;;;;;26.39;nan;100808.16;5020747;28;20034;-70
2023/07/23 10:21:52;;;;;;;4.43;2.70;;;;;;;26.39;nan;100798.16;5020074;28;20022;-71
2023/07/23 10:24:18;;;;;;;3.90;2.53;;;;;;;26.41;nan;100795.94;5020690;28;20052;-69
2023/07/23 10:26:47;;;;;;;5.10;2.78;;;;;;;26.47;nan;100791.13;5018312;28;20522;-69
2023/07/23 10:29:18;;;;;;;5.00;3.10;;;;;;;26.47;nan;100797.31;5018537;28;20369;-69
2023/07/23 10:31:44;;;;;;;2.90;2.35;;;;;;;26.50;nan;100785.06;5017781;28;20033;-69
2023/07/23 10:34:31;;;;;;;4.00;2.75;;;;;;;26.50;nan;100782.38;5018488;28;20494;-68
2023/07/23 10:37:19;;;;;;;3.00;2.47;;;;;;;26.65;nan;100792.69;5014015;28;20040;-68
2023/07/23 10:39:49;;;;;;;3.42;2.67;;;;;;;26.73;nan;100789.16;5036189;28;20025;-70
2023/07/23 10:42:40;;;;;;;3.72;2.72;;;;;;;26.83;nan;100796.09;5016809;28;20036;-69
2023/07/23 10:45:21;;;;;;;3.35;2.67;;;;;;;26.87;nan;100790.84;5019825;28;20029;-68
2023/07/23 10:47:52;;;;;;;3.10;2.38;;;;;;;26.91;nan;100783.66;5020174;28;20043;-71
2023/07/23 10:50:18;;;;;;;4.18;2.53;;;;;;;26.91;nan;100779.06;5018207;28;20029;-72
2023/07/23 10:52:49;;;;;;;4.60;2.17;;;;;;;26.97;nan;100760.75;5017044;28;20384;-69
2023/07/23 10:55:37;;;;;;;3.70;2.35;;;;;;;27.06;nan;100766.91;5016075;28;20029;-69
2023/07/23 10:58:18;;;;;;;3.55;2.63;;;;;;;27.07;nan;100762.28;5034430;28;20549;-73
2023/07/23 11:00:53;;;;;;;4.10;2.33;;;;;;;27.15;nan;100758.72;5020896;28;20029;-70
2023/07/23 11:03:21;;;;;;;3.75;2.45;;;;;;;27.27;nan;100764.25;5017845;28;20055;-69
2023/07/23 11:05:46;;;;;;;7.10;4.97;;;;;;;27.13;nan;100732.03;5017749;28;20026;-68
2023/07/23 11:08:17;;;;;;;3.58;2.70;;;;;;;27.20;nan;100741.53;5020790;28;20087;-70
2023/07/23 11:10:52;;;;;;;4.03;2.88;;;;;;;27.22;nan;100733.91;5018963;28;20075;-69
2023/07/23 11:13:21;;;;;;;2.50;2.22;;;;;;;27.24;nan;100732.44;5008224;28;20037;-69
2023/07/23 11:15:46;;;;;;;5.05;2.40;;;;;;;27.41;nan;100746.97;5018326;28;20041;-66
2023/07/23 11:18:12;;;;;;;3.50;2.50;;;;;;;27.31;nan;100726.53;5019211;28;20038;-66
2023/07/23 11:20:43;;;;;;;3.00;2.30;;;;;;;27.32;nan;100736.19;5019364;28;20033;-66
2023/07/23 11:23:11;;;;;;;3.35;2.40;;;;;;;27.33;nan;100733.19;5020071;28;20022;-66
2023/07/23 11:25:37;;;;;;;3.13;2.35;;;;;;;27.35;nan;100739.06;5017822;28;20748;-67
2023/07/23 11:28:02;;;;;;;3.50;2.53;;;;;;;27.42;nan;100735.03;5019289;28;20034;-67
2023/07/23 11:30:31;;;;;;;3.33;2.10;;;;;;;27.47;nan;100729.44;5018708;28;20104;-68
2023/07/23 11:32:56;;;;;;;4.10;2.60;;;;;;;27.47;nan;100707.78;5018823;28;20026;-67
2023/07/23 11:35:22;;;;;;;4.60;2.78;;;;;;;27.54;nan;100713.44;5016799;28;20042;-67
2023/07/23 11:37:49;;;;;;;4.63;2.63;;;;;;;27.59;nan;100710.53;5019783;28;20696;-69
2023/07/23 11:40:22;;;;;;;3.00;2.15;;;;;;;27.70;nan;100717.13;5017711;28;20029;-69